sensor_id;sensor_type;location;lat;lon;timestamp;pressure;altitude;pressure_sealevel;temperature;humidity
76022;BME280;64718;52.124;6.226;2022-11-06T00:00:32;101459.78;;;8.23;84.32
76022;BME280;64718;52.124;6.226;2022-11-06T00:03:01;101447.34;;;8.39;83.68
76022;BME280;64718;52.124;6.226;2022-11-06T00:05:28;101442.94;;;8.42;83.41
76022;BME280;64718;52.124;6.226;2022-11-06T00:08:13;101442.13;;;8.40;83.64
76022;BME280;64718;52.124;6.226;2022-11-06T00:10:39;101431.13;;;8.29;84.35
76022;BME280;64718;52.124;6.226;2022-11-06T00:13:06;101436.28;;;8.31;84.42
76022;BME280;64718;52.124;6.226;2022-11-06T00:15:33;101439.94;;;8.22;84.64
76022;BME280;64718;52.124;6.226;2022-11-06T00:18:01;101441.53;;;8.28;84.30
76022;BME280;64718;52.124;6.226;2022-11-06T00:20:27;101446.75;;;8.26;84.36
76022;BME280;64718;52.124;6.226;2022-11-06T00:22:53;101437.56;;;8.13;85.10
76022;BME280;64718;52.124;6.226;2022-11-06T00:25:20;101433.16;;;8.16;84.80
76022;BME280;64718;52.124;6.226;2022-11-06T00:27:46;101429.53;;;8.23;84.68
76022;BME280;64718;52.124;6.226;2022-11-06T00:30:13;101436.13;;;8.38;84.21
76022;BME280;64718;52.124;6.226;2022-11-06T00:32:40;101437.81;;;8.39;83.74
76022;BME280;64718;52.124;6.226;2022-11-06T00:35:08;101449.88;;;8.40;83.83
76022;BME280;64718;52.124;6.226;2022-11-06T00:37:34;101448.34;;;8.32;84.49
76022;BME280;64718;52.124;6.226;2022-11-06T00:40:02;101449.38;;;8.24;84.57
76022;BME280;64718;52.124;6.226;2022-11-06T00:42:29;101462.16;;;8.32;84.49
76022;BME280;64718;52.124;6.226;2022-11-06T00:44:55;101457.47;;;8.48;83.52
76022;BME280;64718;52.124;6.226;2022-11-06T00:47:22;101453.22;;;8.45;83.67
76022;BME280;64718;52.124;6.226;2022-11-06T00:49:49;101443.59;;;8.50;83.36
76022;BME280;64718;52.124;6.226;2022-11-06T00:52:16;101441.06;;;8.47;83.34
76022;BME280;64718;52.124;6.226;2022-11-06T00:54:43;101437.59;;;8.48;83.83
76022;BME280;64718;52.124;6.226;2022-11-06T00:57:09;101440.06;;;8.53;83.13
76022;BME280;64718;52.124;6.226;2022-11-06T00:59:36;101436.66;;;8.51;84.10
76022;BME280;64718;52.124;6.226;2022-11-06T01:02:02;101424.41;;;8.57;82.90
76022;BME280;64718;52.124;6.226;2022-11-06T01:04:29;101423.63;;;8.54;83.49
76022;BME280;64718;52.124;6.226;2022-11-06T01:06:56;101419.44;;;8.48;83.69
76022;BME280;64718;52.124;6.226;2022-11-06T01:09:25;101431.59;;;8.46;83.65
76022;BME280;64718;52.124;6.226;2022-11-06T01:11:54;101413.50;;;8.45;83.80
76022;BME280;64718;52.124;6.226;2022-11-06T01:14:22;101418.59;;;8.48;83.24
76022;BME280;64718;52.124;6.226;2022-11-06T01:16:49;101422.22;;;8.41;83.83
76022;BME280;64718;52.124;6.226;2022-11-06T01:19:17;101415.56;;;8.29;83.94
76022;BME280;64718;52.124;6.226;2022-11-06T01:21:47;101411.59;;;8.14;84.64
76022;BME280;64718;52.124;6.226;2022-11-06T01:24:16;101411.72;;;8.10;84.88
76022;BME280;64718;52.124;6.226;2022-11-06T01:26:45;101398.91;;;8.02;85.16
76022;BME280;64718;52.124;6.226;2022-11-06T01:29:13;101395.31;;;8.08;84.65
76022;BME280;64718;52.124;6.226;2022-11-06T01:31:40;101381.66;;;8.01;85.45
76022;BME280;64718;52.124;6.226;2022-11-06T01:34:07;101389.41;;;8.03;85.33
76022;BME280;64718;52.124;6.226;2022-11-06T01:36:34;101384.25;;;8.01;84.95
76022;BME280;64718;52.124;6.226;2022-11-06T01:39:03;101375.59;;;8.02;84.98
76022;BME280;64718;52.124;6.226;2022-11-06T01:41:33;101392.94;;;7.99;85.21
76022;BME280;64718;52.124;6.226;2022-11-06T01:44:03;101392.97;;;7.97;85.00
76022;BME280;64718;52.124;6.226;2022-11-06T01:46:31;101393.09;;;7.92;85.55
76022;BME280;64718;52.124;6.226;2022-11-06T01:49:00;101390.50;;;7.92;85.85
76022;BME280;64718;52.124;6.226;2022-11-06T01:51:30;101377.38;;;8.00;85.64
76022;BME280;64718;52.124;6.226;2022-11-06T01:53:57;101394.34;;;8.13;84.81
76022;BME280;64718;52.124;6.226;2022-11-06T01:56:24;101398.53;;;8.19;84.57
76022;BME280;64718;52.124;6.226;2022-11-06T01:58:52;101398.34;;;8.27;84.27
76022;BME280;64718;52.124;6.226;2022-11-06T02:01:22;101389.44;;;8.40;83.97
76022;BME280;64718;52.124;6.226;2022-11-06T02:03:54;101385.13;;;8.39;84.19
76022;BME280;64718;52.124;6.226;2022-11-06T02:06:21;101395.38;;;8.43;83.65
76022;BME280;64718;52.124;6.226;2022-11-06T02:08:48;101383.28;;;8.44;83.60
76022;BME280;64718;52.124;6.226;2022-11-06T02:11:15;101377.25;;;8.43;83.42
76022;BME280;64718;52.124;6.226;2022-11-06T02:13:47;101363.53;;;8.38;83.60
76022;BME280;64718;52.124;6.226;2022-11-06T02:16:23;101376.66;;;8.31;84.21
76022;BME280;64718;52.124;6.226;2022-11-06T02:19:02;101375.78;;;8.32;84.11
76022;BME280;64718;52.124;6.226;2022-11-06T02:24:46;101366.34;;;8.29;83.97
76022;BME280;64718;52.124;6.226;2022-11-06T02:27:19;101368.97;;;8.28;83.85
76022;BME280;64718;52.124;6.226;2022-11-06T02:29:51;101368.03;;;8.30;83.91
76022;BME280;64718;52.124;6.226;2022-11-06T02:32:24;101357.78;;;8.25;83.66
76022;BME280;64718;52.124;6.226;2022-11-06T02:34:53;101356.19;;;8.20;84.09
76022;BME280;64718;52.124;6.226;2022-11-06T02:37:26;101356.16;;;8.21;83.96
76022;BME280;64718;52.124;6.226;2022-11-06T02:39:58;101357.78;;;8.25;84.08
76022;BME280;64718;52.124;6.226;2022-11-06T02:42:29;101349.00;;;8.31;83.78
76022;BME280;64718;52.124;6.226;2022-11-06T02:44:57;101355.84;;;8.35;83.37
76022;BME280;64718;52.124;6.226;2022-11-06T02:47:27;101351.25;;;8.46;82.99
76022;BME280;64718;52.124;6.226;2022-11-06T02:50:01;101345.47;;;8.35;83.31
76022;BME280;64718;52.124;6.226;2022-11-06T02:52:31;101345.63;;;8.28;83.58
76022;BME280;64718;52.124;6.226;2022-11-06T02:55:03;101346.75;;;8.17;84.28
76022;BME280;64718;52.124;6.226;2022-11-06T02:57:35;101340.56;;;8.23;83.81
76022;BME280;64718;52.124;6.226;2022-11-06T03:00:05;101333.50;;;8.30;83.92
76022;BME280;64718;52.124;6.226;2022-11-06T03:02:36;101336.97;;;8.29;83.87
76022;BME280;64718;52.124;6.226;2022-11-06T03:05:08;101334.88;;;8.44;83.44
76022;BME280;64718;52.124;6.226;2022-11-06T03:07:40;101325.19;;;8.51;83.56
76022;BME280;64718;52.124;6.226;2022-11-06T03:10:10;101329.03;;;8.70;82.26
76022;BME280;64718;52.124;6.226;2022-11-06T03:12:45;101327.38;;;8.68;82.79
76022;BME280;64718;52.124;6.226;2022-11-06T03:15:19;101319.41;;;8.74;82.02
76022;BME280;64718;52.124;6.226;2022-11-06T03:17:52;101318.53;;;8.75;82.01
76022;BME280;64718;52.124;6.226;2022-11-06T03:20:29;101328.09;;;8.73;82.31
76022;BME280;64718;52.124;6.226;2022-11-06T03:23:02;101326.31;;;8.75;81.90
76022;BME280;64718;52.124;6.226;2022-11-06T03:25:34;101334.97;;;8.74;82.76
76022;BME280;64718;52.124;6.226;2022-11-06T03:28:07;101330.66;;;8.74;82.80
76022;BME280;64718;52.124;6.226;2022-11-06T03:30:39;101340.97;;;8.76;82.28
76022;BME280;64718;52.124;6.226;2022-11-06T03:33:12;101340.00;;;8.80;82.57
76022;BME280;64718;52.124;6.226;2022-11-06T03:35:43;101335.56;;;8.83;81.94
76022;BME280;64718;52.124;6.226;2022-11-06T03:38:15;101330.44;;;8.82;82.13
76022;BME280;64718;52.124;6.226;2022-11-06T03:40:46;101328.81;;;8.78;82.69
76022;BME280;64718;52.124;6.226;2022-11-06T03:43:19;101334.81;;;8.80;81.95
76022;BME280;64718;52.124;6.226;2022-11-06T03:45:48;101323.59;;;8.79;82.59
76022;BME280;64718;52.124;6.226;2022-11-06T03:48:19;101327.03;;;8.80;82.50
76022;BME280;64718;52.124;6.226;2022-11-06T03:50:54;101324.34;;;8.83;82.24
76022;BME280;64718;52.124;6.226;2022-11-06T03:53:24;101326.94;;;8.83;82.21
76022;BME280;64718;52.124;6.226;2022-11-06T03:55:54;101325.28;;;8.80;82.26
76022;BME280;64718;52.124;6.226;2022-11-06T03:58:27;101322.69;;;8.80;82.22
76022;BME280;64718;52.124;6.226;2022-11-06T04:00:57;101315.59;;;8.87;81.72
76022;BME280;64718;52.124;6.226;2022-11-06T04:03:27;101318.28;;;8.84;82.04
76022;BME280;64718;52.124;6.226;2022-11-06T04:06:01;101323.41;;;8.85;81.94
76022;BME280;64718;52.124;6.226;2022-11-06T04:08:31;101312.22;;;8.83;82.27
76022;BME280;64718;52.124;6.226;2022-11-06T04:11:17;101314.75;;;8.86;82.10
76022;BME280;64718;52.124;6.226;2022-11-06T04:14:05;101309.59;;;8.85;82.19
76022;BME280;64718;52.124;6.226;2022-11-06T04:16:34;101307.91;;;8.84;82.39
76022;BME280;64718;52.124;6.226;2022-11-06T04:19:04;101305.25;;;8.85;81.89
76022;BME280;64718;52.124;6.226;2022-11-06T04:21:49;101295.88;;;8.81;81.87
76022;BME280;64718;52.124;6.226;2022-11-06T04:24:28;101299.19;;;8.86;81.69
76022;BME280;64718;52.124;6.226;2022-11-06T04:27:22;101296.63;;;8.85;81.91
76022;BME280;64718;52.124;6.226;2022-11-06T04:30:03;101286.28;;;8.83;82.21
76022;BME280;64718;52.124;6.226;2022-11-06T04:32:36;101290.53;;;8.86;82.20
76022;BME280;64718;52.124;6.226;2022-11-06T04:35:09;101295.91;;;8.80;82.67
76022;BME280;64718;52.124;6.226;2022-11-06T04:37:43;101292.25;;;8.87;82.14
76022;BME280;64718;52.124;6.226;2022-11-06T04:40:16;101287.06;;;8.87;82.14
76022;BME280;64718;52.124;6.226;2022-11-06T04:42:53;101287.06;;;8.87;82.28
76022;BME280;64718;52.124;6.226;2022-11-06T04:45:26;101277.50;;;8.89;81.64
76022;BME280;64718;52.124;6.226;2022-11-06T04:47:54;101272.31;;;8.89;82.46
76022;BME280;64718;52.124;6.226;2022-11-06T04:50:22;101267.13;;;8.89;82.38
76022;BME280;64718;52.124;6.226;2022-11-06T04:52:50;101261.00;;;8.92;81.64
76022;BME280;64718;52.124;6.226;2022-11-06T04:55:19;101266.13;;;8.93;81.82
76022;BME280;64718;52.124;6.226;2022-11-06T04:57:46;101270.38;;;8.96;81.86
76022;BME280;64718;52.124;6.226;2022-11-06T05:00:14;101257.41;;;8.96;82.04
76022;BME280;64718;52.124;6.226;2022-11-06T05:02:43;101266.94;;;8.95;82.06
76022;BME280;64718;52.124;6.226;2022-11-06T05:05:09;101252.13;;;8.99;81.97
76022;BME280;64718;52.124;6.226;2022-11-06T05:07:36;101252.97;;;8.99;82.25
76022;BME280;64718;52.124;6.226;2022-11-06T05:10:03;101250.38;;;8.99;81.86
76022;BME280;64718;52.124;6.226;2022-11-06T05:12:30;101248.63;;;9.00;82.17
76022;BME280;64718;52.124;6.226;2022-11-06T05:14:56;101237.50;;;8.96;81.70
76022;BME280;64718;52.124;6.226;2022-11-06T05:17:23;101234.25;;;8.90;82.42
76022;BME280;64718;52.124;6.226;2022-11-06T05:19:50;101248.09;;;8.88;82.59
76022;BME280;64718;52.124;6.226;2022-11-06T05:22:17;101252.50;;;8.86;82.79
76022;BME280;64718;52.124;6.226;2022-11-06T05:25:01;101255.31;;;8.79;82.81
76022;BME280;64718;52.124;6.226;2022-11-06T05:27:28;101246.69;;;8.78;83.13
76022;BME280;64718;52.124;6.226;2022-11-06T05:29:54;101244.13;;;8.77;82.97
76022;BME280;64718;52.124;6.226;2022-11-06T05:32:21;101258.13;;;8.71;82.90
76022;BME280;64718;52.124;6.226;2022-11-06T05:34:47;101257.44;;;8.63;83.49
76022;BME280;64718;52.124;6.226;2022-11-06T05:37:15;101252.41;;;8.59;83.60
76022;BME280;64718;52.124;6.226;2022-11-06T05:39:41;101258.44;;;8.59;83.58
76022;BME280;64718;52.124;6.226;2022-11-06T05:42:08;101259.38;;;8.56;83.88
76022;BME280;64718;52.124;6.226;2022-11-06T05:44:34;101256.72;;;8.58;83.87
76022;BME280;64718;52.124;6.226;2022-11-06T05:47:02;101259.97;;;8.66;83.35
76022;BME280;64718;52.124;6.226;2022-11-06T05:49:28;101252.03;;;8.72;82.95
76022;BME280;64718;52.124;6.226;2022-11-06T05:51:55;101251.84;;;8.78;82.98
76022;BME280;64718;52.124;6.226;2022-11-06T05:54:23;101247.44;;;8.82;82.60
76022;BME280;64718;52.124;6.226;2022-11-06T05:56:49;101243.81;;;8.87;82.19
76022;BME280;64718;52.124;6.226;2022-11-06T05:59:16;101228.28;;;8.86;82.39
76022;BME280;64718;52.124;6.226;2022-11-06T06:01:42;101226.50;;;8.88;82.26
76022;BME280;64718;52.124;6.226;2022-11-06T06:04:09;101225.59;;;8.89;82.32
76022;BME280;64718;52.124;6.226;2022-11-06T06:06:35;101231.03;;;8.81;83.13
76022;BME280;64718;52.124;6.226;2022-11-06T06:09:02;101218.84;;;8.83;82.86
76022;BME280;64718;52.124;6.226;2022-11-06T06:11:30;101212.88;;;8.81;82.46
76022;BME280;64718;52.124;6.226;2022-11-06T06:13:56;101223.34;;;8.78;82.91
76022;BME280;64718;52.124;6.226;2022-11-06T06:16:23;101212.06;;;8.79;82.58
76022;BME280;64718;52.124;6.226;2022-11-06T06:18:49;101209.41;;;8.81;82.36
76022;BME280;64718;52.124;6.226;2022-11-06T06:21:16;101208.56;;;8.80;82.72
76022;BME280;64718;52.124;6.226;2022-11-06T06:23:43;101211.13;;;8.82;83.13
76022;BME280;64718;52.124;6.226;2022-11-06T06:26:09;101201.47;;;8.87;82.33
76022;BME280;64718;52.124;6.226;2022-11-06T06:28:37;101209.09;;;8.92;82.24
76022;BME280;64718;52.124;6.226;2022-11-06T06:31:05;101199.56;;;8.92;82.83
76022;BME280;64718;52.124;6.226;2022-11-06T06:33:32;101189.25;;;8.91;82.69
76022;BME280;64718;52.124;6.226;2022-11-06T06:36:02;101200.38;;;8.94;82.70
76022;BME280;64718;52.124;6.226;2022-11-06T06:38:28;101203.78;;;8.96;82.15
76022;BME280;64718;52.124;6.226;2022-11-06T06:40:59;101205.34;;;9.02;82.33
76022;BME280;64718;52.124;6.226;2022-11-06T06:43:26;101194.00;;;9.04;81.86
76022;BME280;64718;52.124;6.226;2022-11-06T06:45:56;101200.81;;;9.08;82.40
76022;BME280;64718;52.124;6.226;2022-11-06T06:48:23;101191.22;;;9.10;81.93
76022;BME280;64718;52.124;6.226;2022-11-06T06:50:49;101193.03;;;9.08;81.79
76022;BME280;64718;52.124;6.226;2022-11-06T06:53:16;101193.78;;;9.12;81.89
76022;BME280;64718;52.124;6.226;2022-11-06T06:55:42;101195.31;;;9.17;81.56
76022;BME280;64718;52.124;6.226;2022-11-06T06:58:09;101190.00;;;9.22;81.50
76022;BME280;64718;52.124;6.226;2022-11-06T07:00:35;101190.78;;;9.24;81.24
76022;BME280;64718;52.124;6.226;2022-11-06T07:03:03;101195.13;;;9.25;81.58
76022;BME280;64718;52.124;6.226;2022-11-06T07:05:30;101196.72;;;9.29;81.14
76022;BME280;64718;52.124;6.226;2022-11-06T07:07:57;101193.13;;;9.33;81.00
76022;BME280;64718;52.124;6.226;2022-11-06T07:10:23;101193.94;;;9.35;81.17
76022;BME280;64718;52.124;6.226;2022-11-06T07:12:50;101182.09;;;9.27;80.99
76022;BME280;64718;52.124;6.226;2022-11-06T07:15:16;101197.47;;;9.33;80.95
76022;BME280;64718;52.124;6.226;2022-11-06T07:17:43;101190.59;;;9.32;81.16
76022;BME280;64718;52.124;6.226;2022-11-06T07:20:11;101197.66;;;9.27;81.28
76022;BME280;64718;52.124;6.226;2022-11-06T07:22:38;101190.84;;;9.23;81.02
76022;BME280;64718;52.124;6.226;2022-11-06T07:25:05;101177.88;;;9.23;81.59
76022;BME280;64718;52.124;6.226;2022-11-06T07:27:32;101177.25;;;9.14;81.82
76022;BME280;64718;52.124;6.226;2022-11-06T07:29:58;101181.88;;;9.05;82.23
76022;BME280;64718;52.124;6.226;2022-11-06T07:32:25;101171.50;;;9.05;81.75
76022;BME280;64718;52.124;6.226;2022-11-06T07:34:52;101173.97;;;9.09;81.50
76022;BME280;64718;52.124;6.226;2022-11-06T07:37:20;101169.22;;;9.22;81.67
76022;BME280;64718;52.124;6.226;2022-11-06T07:39:46;101179.34;;;9.31;81.65
76022;BME280;64718;52.124;6.226;2022-11-06T07:42:13;101178.22;;;9.40;80.92
76022;BME280;64718;52.124;6.226;2022-11-06T07:44:39;101174.50;;;9.47;80.41
76022;BME280;64718;52.124;6.226;2022-11-06T07:47:06;101174.34;;;9.51;80.03
76022;BME280;64718;52.124;6.226;2022-11-06T07:49:32;101182.41;;;9.44;80.88
76022;BME280;64718;52.124;6.226;2022-11-06T07:51:59;101176.91;;;9.53;80.03
76022;BME280;64718;52.124;6.226;2022-11-06T07:54:26;101182.94;;;9.54;79.98
76022;BME280;64718;52.124;6.226;2022-11-06T07:56:53;101183.53;;;9.62;79.98
76022;BME280;64718;52.124;6.226;2022-11-06T07:59:19;101180.16;;;9.60;79.44
76022;BME280;64718;52.124;6.226;2022-11-06T08:01:46;101178.19;;;9.66;79.52
76022;BME280;64718;52.124;6.226;2022-11-06T08:04:12;101172.78;;;9.72;79.27
76022;BME280;64718;52.124;6.226;2022-11-06T08:06:39;101173.84;;;9.67;79.66
76022;BME280;64718;52.124;6.226;2022-11-06T08:09:06;101166.63;;;9.75;78.96
76022;BME280;64718;52.124;6.226;2022-11-06T08:11:34;101169.41;;;9.70;79.65
76022;BME280;64718;52.124;6.226;2022-11-06T08:14:01;101169.19;;;9.76;79.00
76022;BME280;64718;52.124;6.226;2022-11-06T08:16:27;101167.50;;;9.75;79.17
76022;BME280;64718;52.124;6.226;2022-11-06T08:18:54;101173.31;;;9.83;79.62
76022;BME280;64718;52.124;6.226;2022-11-06T08:21:21;101170.78;;;9.80;79.35
76022;BME280;64718;52.124;6.226;2022-11-06T08:23:47;101175.78;;;9.87;79.28
76022;BME280;64718;52.124;6.226;2022-11-06T08:26:14;101173.09;;;9.90;79.40
76022;BME280;64718;52.124;6.226;2022-11-06T08:28:42;101165.03;;;9.97;79.20
76022;BME280;64718;52.124;6.226;2022-11-06T08:31:08;101160.47;;;10.04;79.04
76022;BME280;64718;52.124;6.226;2022-11-06T08:33:36;101153.56;;;10.03;78.96
76022;BME280;64718;52.124;6.226;2022-11-06T08:36:04;101156.81;;;10.09;78.77
76022;BME280;64718;52.124;6.226;2022-11-06T08:38:31;101150.38;;;10.20;78.41
76022;BME280;64718;52.124;6.226;2022-11-06T08:41:03;101142.38;;;10.26;78.11
76022;BME280;64718;52.124;6.226;2022-11-06T08:43:29;101151.66;;;10.33;78.60
76022;BME280;64718;52.124;6.226;2022-11-06T08:45:58;101148.88;;;10.37;78.06
76022;BME280;64718;52.124;6.226;2022-11-06T08:48:24;101134.88;;;10.41;77.87
76022;BME280;64718;52.124;6.226;2022-11-06T08:50:51;101130.63;;;10.39;77.73
76022;BME280;64718;52.124;6.226;2022-11-06T08:53:18;101122.69;;;10.43;77.94
76022;BME280;64718;52.124;6.226;2022-11-06T08:55:44;101120.34;;;10.59;77.64
76022;BME280;64718;52.124;6.226;2022-11-06T08:58:11;101126.63;;;10.54;77.54
76022;BME280;64718;52.124;6.226;2022-11-06T09:00:38;101116.94;;;10.57;77.46
76022;BME280;64718;52.124;6.226;2022-11-06T09:03:10;101113.94;;;10.68;77.84
76022;BME280;64718;52.124;6.226;2022-11-06T09:05:38;101118.16;;;10.70;77.06
76022;BME280;64718;52.124;6.226;2022-11-06T09:08:06;101116.72;;;10.63;77.13
76022;BME280;64718;52.124;6.226;2022-11-06T09:10:32;101117.69;;;10.61;77.23
76022;BME280;64718;52.124;6.226;2022-11-06T09:12:59;101106.97;;;10.68;76.92
76022;BME280;64718;52.124;6.226;2022-11-06T09:15:26;101095.78;;;10.66;77.11
76022;BME280;64718;52.124;6.226;2022-11-06T09:17:53;101093.84;;;10.71;76.22
76022;BME280;64718;52.124;6.226;2022-11-06T09:20:22;101095.84;;;10.65;76.76
76022;BME280;64718;52.124;6.226;2022-11-06T09:22:50;101101.72;;;10.70;77.04
76022;BME280;64718;52.124;6.226;2022-11-06T09:25:18;101098.22;;;10.71;76.63
76022;BME280;64718;52.124;6.226;2022-11-06T09:27:46;101097.28;;;10.72;76.91
76022;BME280;64718;52.124;6.226;2022-11-06T09:30:15;101092.56;;;10.82;76.26
76022;BME280;64718;52.124;6.226;2022-11-06T09:32:47;101088.69;;;10.92;76.30
76022;BME280;64718;52.124;6.226;2022-11-06T09:35:14;101091.19;;;10.95;75.78
76022;BME280;64718;52.124;6.226;2022-11-06T09:37:42;101079.06;;;10.94;75.86
76022;BME280;64718;52.124;6.226;2022-11-06T09:40:18;101073.59;;;11.01;75.12
76022;BME280;64718;52.124;6.226;2022-11-06T09:42:52;101068.53;;;11.19;74.81
76022;BME280;64718;52.124;6.226;2022-11-06T09:45:25;101062.88;;;11.70;73.65
76022;BME280;64718;52.124;6.226;2022-11-06T09:47:57;101073.94;;;11.75;73.60
76022;BME280;64718;52.124;6.226;2022-11-06T09:50:28;101070.97;;;11.84;73.75
76022;BME280;64718;52.124;6.226;2022-11-06T09:52:59;101070.63;;;11.71;73.55
76022;BME280;64718;52.124;6.226;2022-11-06T09:55:30;101064.56;;;11.51;74.60
76022;BME280;64718;52.124;6.226;2022-11-06T09:58:02;101060.59;;;11.22;74.58
76022;BME280;64718;52.124;6.226;2022-11-06T10:00:30;101058.66;;;11.27;74.96
76022;BME280;64718;52.124;6.226;2022-11-06T10:03:01;101059.63;;;11.24;74.96
76022;BME280;64718;52.124;6.226;2022-11-06T10:05:31;101047.06;;;11.34;74.90
76022;BME280;64718;52.124;6.226;2022-11-06T10:08:01;101062.22;;;11.45;75.16
76022;BME280;64718;52.124;6.226;2022-11-06T10:10:35;101063.50;;;11.56;74.80
76022;BME280;64718;52.124;6.226;2022-11-06T10:13:16;101062.88;;;11.70;74.27
76022;BME280;64718;52.124;6.226;2022-11-06T10:15:51;101048.09;;;11.70;73.35
76022;BME280;64718;52.124;6.226;2022-11-06T10:18:25;101043.28;;;11.82;73.19
76022;BME280;64718;52.124;6.226;2022-11-06T10:21:00;101043.53;;;11.76;73.69
76022;BME280;64718;52.124;6.226;2022-11-06T10:23:38;101043.28;;;11.82;73.83
76022;BME280;64718;52.124;6.226;2022-11-06T10:26:11;101037.28;;;11.80;74.04
76022;BME280;64718;52.124;6.226;2022-11-06T10:29:02;101030.97;;;11.85;73.37
76022;BME280;64718;52.124;6.226;2022-11-06T10:31:36;101035.97;;;12.09;72.59
76022;BME280;64718;52.124;6.226;2022-11-06T10:34:07;101022.88;;;12.29;72.10
76022;BME280;64718;52.124;6.226;2022-11-06T10:36:38;101020.19;;;12.49;70.90
76022;BME280;64718;52.124;6.226;2022-11-06T10:39:14;101004.91;;;12.78;69.84
76022;BME280;64718;52.124;6.226;2022-11-06T10:41:42;101020.41;;;13.15;68.40
76022;BME280;64718;52.124;6.226;2022-11-06T10:44:14;101007.16;;;13.37;69.44
76022;BME280;64718;52.124;6.226;2022-11-06T10:46:47;100996.63;;;13.39;68.85
76022;BME280;64718;52.124;6.226;2022-11-06T10:49:20;100990.84;;;13.49;68.02
76022;BME280;64718;52.124;6.226;2022-11-06T10:52:03;100989.72;;;13.20;68.56
76022;BME280;64718;52.124;6.226;2022-11-06T10:54:46;100995.88;;;13.19;67.84
76022;BME280;64718;52.124;6.226;2022-11-06T10:57:24;100991.41;;;13.21;67.71
76022;BME280;64718;52.124;6.226;2022-11-06T10:59:54;100992.38;;;13.02;67.55
76022;BME280;64718;52.124;6.226;2022-11-06T11:02:24;100985.31;;;13.04;68.31
76022;BME280;64718;52.124;6.226;2022-11-06T11:04:51;100978.88;;;12.93;68.20
76022;BME280;64718;52.124;6.226;2022-11-06T11:07:18;100981.78;;;13.05;67.84
76022;BME280;64718;52.124;6.226;2022-11-06T11:09:46;100979.81;;;12.92;69.49
76022;BME280;64718;52.124;6.226;2022-11-06T11:12:22;100982.72;;;13.04;67.94
76022;BME280;64718;52.124;6.226;2022-11-06T11:15:11;100982.50;;;12.91;68.14
76022;BME280;64718;52.124;6.226;2022-11-06T11:17:39;100969.34;;;12.75;69.23
76022;BME280;64718;52.124;6.226;2022-11-06T11:20:28;100966.13;;;12.87;68.75
76022;BME280;64718;52.124;6.226;2022-11-06T11:23:06;100952.00;;;13.09;67.87
76022;BME280;64718;52.124;6.226;2022-11-06T11:25:34;100958.78;;;13.30;67.24
76022;BME280;64718;52.124;6.226;2022-11-06T11:28:02;100945.47;;;13.35;67.39
76022;BME280;64718;52.124;6.226;2022-11-06T11:30:29;100944.22;;;13.07;67.33
76022;BME280;64718;52.124;6.226;2022-11-06T11:32:56;100945.06;;;13.08;67.58
76022;BME280;64718;52.124;6.226;2022-11-06T11:35:26;100950.25;;;12.92;68.95
76022;BME280;64718;52.124;6.226;2022-11-06T11:38:04;100935.47;;;12.56;69.39
76022;BME280;64718;52.124;6.226;2022-11-06T11:40:35;100936.84;;;12.46;69.58
76022;BME280;64718;52.124;6.226;2022-11-06T11:43:20;100929.78;;;12.31;70.31
76022;BME280;64718;52.124;6.226;2022-11-06T11:46:01;100919.41;;;12.29;70.54
76022;BME280;64718;52.124;6.226;2022-11-06T11:48:40;100915.34;;;12.41;70.12
76022;BME280;64718;52.124;6.226;2022-11-06T11:51:11;100913.19;;;12.32;70.01
76022;BME280;64718;52.124;6.226;2022-11-06T11:53:41;100913.28;;;12.30;71.00
76022;BME280;64718;52.124;6.226;2022-11-06T11:56:13;100910.50;;;12.33;70.99
76022;BME280;64718;52.124;6.226;2022-11-06T11:58:47;100914.50;;;12.41;71.00
76022;BME280;64718;52.124;6.226;2022-11-06T12:01:15;100898.09;;;12.39;70.45
76022;BME280;64718;52.124;6.226;2022-11-06T12:03:43;100908.38;;;12.42;70.46
76022;BME280;64718;52.124;6.226;2022-11-06T12:06:13;100895.94;;;12.47;70.33
76022;BME280;64718;52.124;6.226;2022-11-06T12:08:45;100890.34;;;12.54;70.34
76022;BME280;64718;52.124;6.226;2022-11-06T12:11:18;100891.56;;;12.64;69.19
76022;BME280;64718;52.124;6.226;2022-11-06T12:14:15;100870.09;;;12.77;68.67
76022;BME280;64718;52.124;6.226;2022-11-06T12:16:43;100865.25;;;12.86;68.50
76022;BME280;64718;52.124;6.226;2022-11-06T12:19:11;100859.88;;;12.55;69.16
76022;BME280;64718;52.124;6.226;2022-11-06T12:21:40;100854.66;;;12.55;69.36
76022;BME280;64718;52.124;6.226;2022-11-06T12:24:13;100848.44;;;12.40;68.90
76022;BME280;64718;52.124;6.226;2022-11-06T12:26:46;100849.16;;;12.44;69.16
76022;BME280;64718;52.124;6.226;2022-11-06T12:29:17;100833.41;;;12.45;68.00
76022;BME280;64718;52.124;6.226;2022-11-06T12:31:49;100840.63;;;12.75;67.70
76022;BME280;64718;52.124;6.226;2022-11-06T12:34:23;100838.31;;;12.68;66.96
76022;BME280;64718;52.124;6.226;2022-11-06T12:37:05;100829.66;;;12.51;67.03
76022;BME280;64718;52.124;6.226;2022-11-06T12:39:38;100827.81;;;12.53;68.54
76022;BME280;64718;52.124;6.226;2022-11-06T12:42:10;100821.06;;;12.31;67.66
76022;BME280;64718;52.124;6.226;2022-11-06T12:44:37;100822.22;;;12.26;68.24
76022;BME280;64718;52.124;6.226;2022-11-06T12:47:08;100823.53;;;12.17;68.17
76022;BME280;64718;52.124;6.226;2022-11-06T12:52:46;100825.78;;;12.06;68.99
76022;BME280;64718;52.124;6.226;2022-11-06T12:55:21;100817.28;;;12.02;68.64
76022;BME280;64718;52.124;6.226;2022-11-06T12:58:08;100806.38;;;11.94;68.95
76022;BME280;64718;52.124;6.226;2022-11-06T13:00:49;100806.06;;;12.00;68.45
76022;BME280;64718;52.124;6.226;2022-11-06T13:03:33;100803.06;;;11.91;68.97
76022;BME280;64718;52.124;6.226;2022-11-06T13:06:06;100803.63;;;11.97;70.15
76022;BME280;64718;52.124;6.226;2022-11-06T13:08:39;100794.34;;;11.92;69.54
76022;BME280;64718;52.124;6.226;2022-11-06T13:11:19;100794.50;;;11.89;69.99
76022;BME280;64718;52.124;6.226;2022-11-06T13:13:58;100793.38;;;11.76;70.65
76022;BME280;64718;52.124;6.226;2022-11-06T13:16:32;100789.06;;;11.75;70.95
76022;BME280;64718;52.124;6.226;2022-11-06T13:19:07;100795.84;;;11.79;71.06